sensor_id;sensor_type;location;lat;lon;timestamp;P1;durP1;ratioP1;P2;durP2;ratioP2
66619;SDS011;53484;51.356;6.732;2023-04-06T00:01:21;42.67;;;18.13;;
66619;SDS011;53484;51.356;6.732;2023-04-06T00:03:47;45.90;;;19.13;;
66619;SDS011;53484;51.356;6.732;2023-04-06T00:06:14;40.35;;;18.13;;
66619;SDS011;53484;51.356;6.732;2023-04-06T00:08:40;36.00;;;15.68;;
66619;SDS011;53484;51.356;6.732;2023-04-06T00:11:07;34.55;;;14.93;;
66619;SDS011;53484;51.356;6.732;2023-04-06T00:13:33;32.83;;;13.80;;
66619;SDS011;53484;51.356;6.732;2023-04-06T00:15:59;23.83;;;11.60;;
66619;SDS011;53484;51.356;6.732;2023-04-06T00:18:27;22.70;;;9.65;;
66619;SDS011;53484;51.356;6.732;2023-04-06T00:20:53;20.45;;;8.57;;
66619;SDS011;53484;51.356;6.732;2023-04-06T00:23:20;19.05;;;7.15;;
66619;SDS011;53484;51.356;6.732;2023-04-06T00:25:46;14.43;;;6.50;;
66619;SDS011;53484;51.356;6.732;2023-04-06T00:28:13;14.60;;;7.15;;
66619;SDS011;53484;51.356;6.732;2023-04-06T00:30:39;14.20;;;7.18;;
66619;SDS011;53484;51.356;6.732;2023-04-06T00:33:05;14.35;;;6.85;;
66619;SDS011;53484;51.356;6.732;2023-04-06T00:35:33;17.27;;;7.55;;
66619;SDS011;53484;51.356;6.732;2023-04-06T00:38:00;15.40;;;6.73;;
66619;SDS011;53484;51.356;6.732;2023-04-06T00:40:26;15.65;;;7.20;;
66619;SDS011;53484;51.356;6.732;2023-04-06T00:42:53;13.95;;;7.20;;
66619;SDS011;53484;51.356;6.732;2023-04-06T00:45:19;14.85;;;6.45;;
66619;SDS011;53484;51.356;6.732;2023-04-06T00:47:46;13.18;;;6.75;;
66619;SDS011;53484;51.356;6.732;2023-04-06T00:50:12;11.87;;;6.73;;
66619;SDS011;53484;51.356;6.732;2023-04-06T00:52:40;12.55;;;6.60;;
66619;SDS011;53484;51.356;6.732;2023-04-06T00:55:06;15.13;;;6.72;;
66619;SDS011;53484;51.356;6.732;2023-04-06T00:57:32;12.55;;;6.40;;
66619;SDS011;53484;51.356;6.732;2023-04-06T00:59:59;12.60;;;5.80;;
66619;SDS011;53484;51.356;6.732;2023-04-06T01:02:25;12.77;;;6.67;;
66619;SDS011;53484;51.356;6.732;2023-04-06T01:04:52;15.45;;;6.80;;
66619;SDS011;53484;51.356;6.732;2023-04-06T01:07:18;14.95;;;7.00;;
66619;SDS011;53484;51.356;6.732;2023-04-06T01:09:46;16.05;;;7.43;;
66619;SDS011;53484;51.356;6.732;2023-04-06T01:12:12;15.48;;;7.13;;
66619;SDS011;53484;51.356;6.732;2023-04-06T01:14:39;14.23;;;7.37;;
66619;SDS011;53484;51.356;6.732;2023-04-06T01:17:05;16.45;;;7.05;;
66619;SDS011;53484;51.356;6.732;2023-04-06T01:19:31;18.30;;;8.25;;
66619;SDS011;53484;51.356;6.732;2023-04-06T01:21:58;16.00;;;7.75;;
66619;SDS011;53484;51.356;6.732;2023-04-06T01:24:25;14.93;;;7.70;;
66619;SDS011;53484;51.356;6.732;2023-04-06T01:26:52;16.10;;;8.10;;
66619;SDS011;53484;51.356;6.732;2023-04-06T01:29:18;15.93;;;7.30;;
66619;SDS011;53484;51.356;6.732;2023-04-06T01:31:44;14.55;;;7.55;;
66619;SDS011;53484;51.356;6.732;2023-04-06T01:34:11;18.50;;;7.85;;
66619;SDS011;53484;51.356;6.732;2023-04-06T01:36:37;14.10;;;7.18;;
66619;SDS011;53484;51.356;6.732;2023-04-06T01:39:03;14.10;;;7.53;;
66619;SDS011;53484;51.356;6.732;2023-04-06T01:41:31;15.15;;;7.22;;
66619;SDS011;53484;51.356;6.732;2023-04-06T01:43:57;15.10;;;7.25;;
66619;SDS011;53484;51.356;6.732;2023-04-06T01:46:24;16.95;;;7.72;;
66619;SDS011;53484;51.356;6.732;2023-04-06T01:48:50;15.35;;;7.63;;
66619;SDS011;53484;51.356;6.732;2023-04-06T01:51:16;14.33;;;7.17;;
66619;SDS011;53484;51.356;6.732;2023-04-06T01:53:43;15.75;;;8.15;;
66619;SDS011;53484;51.356;6.732;2023-04-06T01:56:09;18.63;;;7.85;;
66619;SDS011;53484;51.356;6.732;2023-04-06T01:58:37;18.80;;;8.07;;
66619;SDS011;53484;51.356;6.732;2023-04-06T02:01:03;15.68;;;7.90;;
66619;SDS011;53484;51.356;6.732;2023-04-06T02:03:29;18.30;;;7.70;;
66619;SDS011;53484;51.356;6.732;2023-04-06T02:05:56;14.10;;;7.72;;
66619;SDS011;53484;51.356;6.732;2023-04-06T02:08:22;17.58;;;7.95;;
66619;SDS011;53484;51.356;6.732;2023-04-06T02:10:49;18.85;;;8.20;;
66619;SDS011;53484;51.356;6.732;2023-04-06T02:13:15;14.82;;;7.70;;
66619;SDS011;53484;51.356;6.732;2023-04-06T02:15:42;14.70;;;7.77;;
66619;SDS011;53484;51.356;6.732;2023-04-06T02:18:09;15.55;;;7.60;;
66619;SDS011;53484;51.356;6.732;2023-04-06T02:20:35;19.30;;;8.63;;
66619;SDS011;53484;51.356;6.732;2023-04-06T02:23:02;17.00;;;8.55;;
66619;SDS011;53484;51.356;6.732;2023-04-06T02:25:28;17.05;;;8.65;;
66619;SDS011;53484;51.356;6.732;2023-04-06T02:27:54;15.70;;;8.20;;
66619;SDS011;53484;51.356;6.732;2023-04-06T02:30:21;15.25;;;7.82;;
66619;SDS011;53484;51.356;6.732;2023-04-06T02:32:48;15.63;;;8.38;;
66619;SDS011;53484;51.356;6.732;2023-04-06T02:35:14;17.50;;;8.43;;
66619;SDS011;53484;51.356;6.732;2023-04-06T02:37:41;21.10;;;8.90;;
66619;SDS011;53484;51.356;6.732;2023-04-06T02:40:07;18.83;;;9.27;;
66619;SDS011;53484;51.356;6.732;2023-04-06T02:42:34;16.98;;;8.13;;
66619;SDS011;53484;51.356;6.732;2023-04-06T02:45:01;18.42;;;9.65;;
66619;SDS011;53484;51.356;6.732;2023-04-06T02:47:27;18.67;;;8.90;;
66619;SDS011;53484;51.356;6.732;2023-04-06T02:49:54;19.08;;;9.48;;
66619;SDS011;53484;51.356;6.732;2023-04-06T02:52:21;17.80;;;9.17;;
66619;SDS011;53484;51.356;6.732;2023-04-06T02:54:47;19.38;;;9.55;;
66619;SDS011;53484;51.356;6.732;2023-04-06T02:57:13;18.73;;;9.55;;
66619;SDS011;53484;51.356;6.732;2023-04-06T02:59:39;18.83;;;9.35;;
66619;SDS011;53484;51.356;6.732;2023-04-06T03:02:06;19.38;;;9.98;;
66619;SDS011;53484;51.356;6.732;2023-04-06T03:04:32;15.83;;;8.77;;
66619;SDS011;53484;51.356;6.732;2023-04-06T03:07:00;18.08;;;9.02;;
66619;SDS011;53484;51.356;6.732;2023-04-06T03:09:26;18.92;;;9.80;;
66619;SDS011;53484;51.356;6.732;2023-04-06T03:11:53;16.20;;;9.52;;
66619;SDS011;53484;51.356;6.732;2023-04-06T03:14:20;19.92;;;9.50;;
66619;SDS011;53484;51.356;6.732;2023-04-06T03:16:47;16.73;;;9.03;;
66619;SDS011;53484;51.356;6.732;2023-04-06T03:19:13;16.08;;;9.05;;
66619;SDS011;53484;51.356;6.732;2023-04-06T03:21:39;21.05;;;8.77;;
66619;SDS011;53484;51.356;6.732;2023-04-06T03:24:07;18.35;;;8.60;;
66619;SDS011;53484;51.356;6.732;2023-04-06T03:26:34;15.70;;;8.45;;
66619;SDS011;53484;51.356;6.732;2023-04-06T03:29:00;20.07;;;8.30;;
66619;SDS011;53484;51.356;6.732;2023-04-06T03:31:26;21.00;;;8.82;;
66619;SDS011;53484;51.356;6.732;2023-04-06T03:33:52;17.25;;;8.35;;
66619;SDS011;53484;51.356;6.732;2023-04-06T03:36:19;16.23;;;8.50;;
66619;SDS011;53484;51.356;6.732;2023-04-06T03:38:45;19.65;;;9.52;;
66619;SDS011;53484;51.356;6.732;2023-04-06T03:41:13;16.90;;;8.50;;
66619;SDS011;53484;51.356;6.732;2023-04-06T03:43:39;16.05;;;8.52;;
66619;SDS011;53484;51.356;6.732;2023-04-06T03:46:05;16.05;;;8.70;;
66619;SDS011;53484;51.356;6.732;2023-04-06T03:48:31;18.52;;;9.07;;
66619;SDS011;53484;51.356;6.732;2023-04-06T03:50:58;18.55;;;9.18;;
66619;SDS011;53484;51.356;6.732;2023-04-06T03:53:24;16.17;;;8.70;;
66619;SDS011;53484;51.356;6.732;2023-04-06T03:55:50;16.92;;;8.65;;
66619;SDS011;53484;51.356;6.732;2023-04-06T03:58:18;22.42;;;9.15;;
66619;SDS011;53484;51.356;6.732;2023-04-06T04:00:44;17.38;;;8.95;;
66619;SDS011;53484;51.356;6.732;2023-04-06T04:03:10;17.35;;;8.93;;
66619;SDS011;53484;51.356;6.732;2023-04-06T04:05:37;19.13;;;8.27;;
66619;SDS011;53484;51.356;6.732;2023-04-06T04:08:03;16.25;;;8.15;;
66619;SDS011;53484;51.356;6.732;2023-04-06T04:10:29;16.45;;;8.68;;
66619;SDS011;53484;51.356;6.732;2023-04-06T04:12:56;14.27;;;7.65;;
66619;SDS011;53484;51.356;6.732;2023-04-06T04:15:23;16.13;;;8.20;;
66619;SDS011;53484;51.356;6.732;2023-04-06T04:17:50;17.90;;;8.37;;
66619;SDS011;53484;51.356;6.732;2023-04-06T04:20:16;15.38;;;8.15;;
66619;SDS011;53484;51.356;6.732;2023-04-06T04:22:42;19.30;;;8.75;;
66619;SDS011;53484;51.356;6.732;2023-04-06T04:25:09;19.05;;;9.00;;
66619;SDS011;53484;51.356;6.732;2023-04-06T04:27:35;16.00;;;7.43;;
66619;SDS011;53484;51.356;6.732;2023-04-06T04:30:01;14.37;;;7.50;;
66619;SDS011;53484;51.356;6.732;2023-04-06T04:32:29;15.13;;;7.93;;
66619;SDS011;53484;51.356;6.732;2023-04-06T04:34:55;13.95;;;8.13;;
66619;SDS011;53484;51.356;6.732;2023-04-06T04:37:22;17.08;;;7.75;;
66619;SDS011;53484;51.356;6.732;2023-04-06T04:39:48;16.80;;;8.38;;
66619;SDS011;53484;51.356;6.732;2023-04-06T04:42:15;16.00;;;8.20;;
66619;SDS011;53484;51.356;6.732;2023-04-06T04:44:41;16.40;;;8.55;;
66619;SDS011;53484;51.356;6.732;2023-04-06T04:47:07;16.50;;;8.18;;
66619;SDS011;53484;51.356;6.732;2023-04-06T04:49:36;17.25;;;8.00;;
66619;SDS011;53484;51.356;6.732;2023-04-06T04:52:02;15.48;;;8.27;;
66619;SDS011;53484;51.356;6.732;2023-04-06T04:54:28;13.87;;;7.70;;
66619;SDS011;53484;51.356;6.732;2023-04-06T04:56:55;14.48;;;7.35;;
66619;SDS011;53484;51.356;6.732;2023-04-06T04:59:21;17.13;;;8.13;;
66619;SDS011;53484;51.356;6.732;2023-04-06T05:01:47;16.52;;;7.82;;
66619;SDS011;53484;51.356;6.732;2023-04-06T05:04:15;16.35;;;8.20;;
66619;SDS011;53484;51.356;6.732;2023-04-06T05:06:42;14.90;;;8.33;;
66619;SDS011;53484;51.356;6.732;2023-04-06T05:09:09;17.55;;;8.93;;
66619;SDS011;53484;51.356;6.732;2023-04-06T05:11:35;14.98;;;7.72;;
66619;SDS011;53484;51.356;6.732;2023-04-06T05:14:01;15.15;;;7.35;;
66619;SDS011;53484;51.356;6.732;2023-04-06T05:16:28;15.95;;;7.38;;
66619;SDS011;53484;51.356;6.732;2023-04-06T05:18:55;17.57;;;8.00;;
66619;SDS011;53484;51.356;6.732;2023-04-06T05:21:22;18.23;;;8.30;;
66619;SDS011;53484;51.356;6.732;2023-04-06T05:23:49;18.08;;;8.10;;
66619;SDS011;53484;51.356;6.732;2023-04-06T05:26:16;14.10;;;7.40;;
66619;SDS011;53484;51.356;6.732;2023-04-06T05:28:43;14.05;;;7.43;;
66619;SDS011;53484;51.356;6.732;2023-04-06T05:31:10;20.10;;;8.10;;
66619;SDS011;53484;51.356;6.732;2023-04-06T05:33:37;13.77;;;7.93;;
66619;SDS011;53484;51.356;6.732;2023-04-06T05:36:03;15.18;;;7.47;;
66619;SDS011;53484;51.356;6.732;2023-04-06T05:38:32;15.07;;;7.60;;
66619;SDS011;53484;51.356;6.732;2023-04-06T05:41:01;16.63;;;7.40;;
66619;SDS011;53484;51.356;6.732;2023-04-06T05:43:27;14.60;;;7.23;;
66619;SDS011;53484;51.356;6.732;2023-04-06T05:45:53;15.05;;;7.80;;
66619;SDS011;53484;51.356;6.732;2023-04-06T05:50:51;13.55;;;7.30;;
66619;SDS011;53484;51.356;6.732;2023-04-06T05:53:18;13.85;;;7.22;;
66619;SDS011;53484;51.356;6.732;2023-04-06T05:55:45;12.93;;;7.00;;
66619;SDS011;53484;51.356;6.732;2023-04-06T05:58:13;14.18;;;6.88;;
66619;SDS011;53484;51.356;6.732;2023-04-06T06:00:39;14.27;;;7.47;;
66619;SDS011;53484;51.356;6.732;2023-04-06T06:03:07;15.15;;;7.25;;
66619;SDS011;53484;51.356;6.732;2023-04-06T06:05:33;14.88;;;7.43;;
66619;SDS011;53484;51.356;6.732;2023-04-06T06:08:02;17.90;;;7.03;;
66619;SDS011;53484;51.356;6.732;2023-04-06T06:10:28;15.10;;;6.90;;
66619;SDS011;53484;51.356;6.732;2023-04-06T06:12:54;13.50;;;7.03;;
66619;SDS011;53484;51.356;6.732;2023-04-06T06:15:22;14.55;;;6.72;;
66619;SDS011;53484;51.356;6.732;2023-04-06T06:17:48;12.95;;;6.60;;
66619;SDS011;53484;51.356;6.732;2023-04-06T06:20:15;14.10;;;7.33;;
66619;SDS011;53484;51.356;6.732;2023-04-06T06:22:41;14.55;;;7.40;;
66619;SDS011;53484;51.356;6.732;2023-04-06T06:25:07;14.27;;;6.85;;
66619;SDS011;53484;51.356;6.732;2023-04-06T06:27:34;12.60;;;6.93;;
66619;SDS011;53484;51.356;6.732;2023-04-06T06:30:00;14.88;;;6.90;;
66619;SDS011;53484;51.356;6.732;2023-04-06T06:32:28;13.07;;;7.00;;
66619;SDS011;53484;51.356;6.732;2023-04-06T06:34:54;10.48;;;5.97;;
66619;SDS011;53484;51.356;6.732;2023-04-06T06:37:20;14.52;;;6.80;;
66619;SDS011;53484;51.356;6.732;2023-04-06T06:39:47;15.00;;;6.90;;
66619;SDS011;53484;51.356;6.732;2023-04-06T06:42:13;13.45;;;7.35;;
66619;SDS011;53484;51.356;6.732;2023-04-06T06:44:39;12.80;;;7.10;;
66619;SDS011;53484;51.356;6.732;2023-04-06T06:47:06;13.70;;;7.25;;
66619;SDS011;53484;51.356;6.732;2023-04-06T06:49:33;15.38;;;6.63;;
66619;SDS011;53484;51.356;6.732;2023-04-06T06:52:00;15.38;;;7.03;;
66619;SDS011;53484;51.356;6.732;2023-04-06T06:54:26;13.45;;;6.93;;
66619;SDS011;53484;51.356;6.732;2023-04-06T06:56:52;14.80;;;7.00;;
66619;SDS011;53484;51.356;6.732;2023-04-06T06:59:19;16.63;;;7.05;;
66619;SDS011;53484;51.356;6.732;2023-04-06T07:04:15;13.95;;;6.65;;
66619;SDS011;53484;51.356;6.732;2023-04-06T07:06:43;16.60;;;7.90;;
66619;SDS011;53484;51.356;6.732;2023-04-06T07:09:09;14.57;;;7.70;;
66619;SDS011;53484;51.356;6.732;2023-04-06T07:11:35;16.33;;;7.22;;
66619;SDS011;53484;51.356;6.732;2023-04-06T07:14:02;15.48;;;7.10;;
66619;SDS011;53484;51.356;6.732;2023-04-06T07:16:28;14.88;;;7.07;;
66619;SDS011;53484;51.356;6.732;2023-04-06T07:18:54;12.10;;;7.28;;
66619;SDS011;53484;51.356;6.732;2023-04-06T07:21:21;12.83;;;7.07;;
66619;SDS011;53484;51.356;6.732;2023-04-06T07:23:50;15.65;;;6.57;;
66619;SDS011;53484;51.356;6.732;2023-04-06T07:26:23;14.38;;;7.18;;
66619;SDS011;53484;51.356;6.732;2023-04-06T07:28:50;14.02;;;7.40;;
66619;SDS011;53484;51.356;6.732;2023-04-06T07:31:16;14.30;;;7.82;;
66619;SDS011;53484;51.356;6.732;2023-04-06T07:33:42;16.03;;;7.77;;
66619;SDS011;53484;51.356;6.732;2023-04-06T07:36:10;16.65;;;7.75;;
66619;SDS011;53484;51.356;6.732;2023-04-06T07:38:36;14.63;;;7.45;;
66619;SDS011;53484;51.356;6.732;2023-04-06T07:41:03;15.32;;;7.32;;
66619;SDS011;53484;51.356;6.732;2023-04-06T07:43:30;17.05;;;8.02;;
66619;SDS011;53484;51.356;6.732;2023-04-06T07:45:56;15.67;;;7.40;;
66619;SDS011;53484;51.356;6.732;2023-04-06T07:48:24;13.93;;;7.47;;
66619;SDS011;53484;51.356;6.732;2023-04-06T07:50:51;14.10;;;7.45;;
66619;SDS011;53484;51.356;6.732;2023-04-06T07:53:24;13.68;;;7.70;;
66619;SDS011;53484;51.356;6.732;2023-04-06T07:55:51;17.30;;;7.13;;
66619;SDS011;53484;51.356;6.732;2023-04-06T07:58:18;14.83;;;7.23;;
66619;SDS011;53484;51.356;6.732;2023-04-06T08:00:45;14.95;;;7.32;;
66619;SDS011;53484;51.356;6.732;2023-04-06T08:03:11;15.73;;;8.10;;
66619;SDS011;53484;51.356;6.732;2023-04-06T08:05:37;15.05;;;7.45;;
66619;SDS011;53484;51.356;6.732;2023-04-06T08:08:04;19.58;;;7.50;;
66619;SDS011;53484;51.356;6.732;2023-04-06T08:10:30;17.30;;;8.17;;
66619;SDS011;53484;51.356;6.732;2023-04-06T08:12:57;15.25;;;7.55;;
66619;SDS011;53484;51.356;6.732;2023-04-06T08:15:24;13.50;;;7.00;;
66619;SDS011;53484;51.356;6.732;2023-04-06T08:17:51;15.10;;;8.07;;
66619;SDS011;53484;51.356;6.732;2023-04-06T08:20:19;16.00;;;7.70;;
66619;SDS011;53484;51.356;6.732;2023-04-06T08:22:45;14.30;;;7.75;;
66619;SDS011;53484;51.356;6.732;2023-04-06T08:25:11;16.00;;;8.30;;
66619;SDS011;53484;51.356;6.732;2023-04-06T08:27:38;20.08;;;8.13;;
66619;SDS011;53484;51.356;6.732;2023-04-06T08:30:05;17.50;;;7.80;;
66619;SDS011;53484;51.356;6.732;2023-04-06T08:32:32;15.77;;;7.87;;
66619;SDS011;53484;51.356;6.732;2023-04-06T08:34:59;18.05;;;8.63;;
66619;SDS011;53484;51.356;6.732;2023-04-06T08:37:25;16.63;;;8.02;;
66619;SDS011;53484;51.356;6.732;2023-04-06T08:39:51;15.23;;;8.18;;
66619;SDS011;53484;51.356;6.732;2023-04-06T08:42:18;16.27;;;8.10;;
66619;SDS011;53484;51.356;6.732;2023-04-06T08:44:45;14.87;;;7.90;;
66619;SDS011;53484;51.356;6.732;2023-04-06T08:47:12;16.15;;;8.43;;
66619;SDS011;53484;51.356;6.732;2023-04-06T08:49:39;21.55;;;8.43;;
66619;SDS011;53484;51.356;6.732;2023-04-06T08:52:06;17.17;;;7.80;;
66619;SDS011;53484;51.356;6.732;2023-04-06T08:54:33;15.48;;;7.72;;
66619;SDS011;53484;51.356;6.732;2023-04-06T08:56:59;16.10;;;8.97;;
66619;SDS011;53484;51.356;6.732;2023-04-06T08:59:26;17.08;;;9.05;;
66619;SDS011;53484;51.356;6.732;2023-04-06T09:01:53;18.42;;;8.88;;
66619;SDS011;53484;51.356;6.732;2023-04-06T09:04:20;18.27;;;9.02;;
66619;SDS011;53484;51.356;6.732;2023-04-06T09:06:48;21.60;;;9.60;;
66619;SDS011;53484;51.356;6.732;2023-04-06T09:09:15;17.73;;;8.60;;
66619;SDS011;53484;51.356;6.732;2023-04-06T09:11:42;17.77;;;8.93;;
66619;SDS011;53484;51.356;6.732;2023-04-06T09:14:08;25.67;;;9.63;;
66619;SDS011;53484;51.356;6.732;2023-04-06T09:16:38;33.00;;;10.85;;
66619;SDS011;53484;51.356;6.732;2023-04-06T09:19:04;17.92;;;8.93;;
66619;SDS011;53484;51.356;6.732;2023-04-06T09:21:31;20.17;;;9.37;;
66619;SDS011;53484;51.356;6.732;2023-04-06T09:23:59;19.92;;;8.95;;
66619;SDS011;53484;51.356;6.732;2023-04-06T09:26:26;22.50;;;9.93;;
66619;SDS011;53484;51.356;6.732;2023-04-06T09:28:53;17.73;;;9.30;;
66619;SDS011;53484;51.356;6.732;2023-04-06T09:31:21;17.17;;;9.07;;
66619;SDS011;53484;51.356;6.732;2023-04-06T09:33:48;20.47;;;9.63;;
66619;SDS011;53484;51.356;6.732;2023-04-06T09:36:14;18.13;;;9.38;;
66619;SDS011;53484;51.356;6.732;2023-04-06T09:38:51;19.45;;;10.05;;
66619;SDS011;53484;51.356;6.732;2023-04-06T09:41:21;18.52;;;10.35;;
66619;SDS011;53484;51.356;6.732;2023-04-06T09:43:49;22.58;;;10.60;;
66619;SDS011;53484;51.356;6.732;2023-04-06T09:46:15;21.03;;;9.70;;
66619;SDS011;53484;51.356;6.732;2023-04-06T09:48:45;22.05;;;11.05;;
66619;SDS011;53484;51.356;6.732;2023-04-06T09:51:11;22.05;;;9.93;;
66619;SDS011;53484;51.356;6.732;2023-04-06T09:53:40;21.58;;;9.45;;
66619;SDS011;53484;51.356;6.732;2023-04-06T09:56:08;20.95;;;10.00;;
66619;SDS011;53484;51.356;6.732;2023-04-06T09:58:37;23.27;;;10.50;;
66619;SDS011;53484;51.356;6.732;2023-04-06T10:01:10;23.20;;;10.98;;
66619;SDS011;53484;51.356;6.732;2023-04-06T10:03:40;24.80;;;9.77;;
66619;SDS011;53484;51.356;6.732;2023-04-06T10:06:10;23.20;;;9.93;;
66619;SDS011;53484;51.356;6.732;2023-04-06T10:08:37;18.90;;;9.18;;
66619;SDS011;53484;51.356;6.732;2023-04-06T10:11:07;22.67;;;10.23;;
66619;SDS011;53484;51.356;6.732;2023-04-06T10:13:34;21.55;;;10.32;;
66619;SDS011;53484;51.356;6.732;2023-04-06T10:16:02;23.80;;;10.52;;
66619;SDS011;53484;51.356;6.732;2023-04-06T10:18:30;23.50;;;10.25;;
66619;SDS011;53484;51.356;6.732;2023-04-06T10:20:57;20.85;;;9.75;;
66619;SDS011;53484;51.356;6.732;2023-04-06T10:23:26;25.03;;;10.10;;
66619;SDS011;53484;51.356;6.732;2023-04-06T10:25:56;25.60;;;10.60;;
66619;SDS011;53484;51.356;6.732;2023-04-06T10:28:23;23.25;;;11.00;;
66619;SDS011;53484;51.356;6.732;2023-04-06T10:30:49;21.05;;;10.35;;
66619;SDS011;53484;51.356;6.732;2023-04-06T10:33:25;23.35;;;10.45;;
66619;SDS011;53484;51.356;6.732;2023-04-06T10:35:51;20.03;;;9.80;;
66619;SDS011;53484;51.356;6.732;2023-04-06T10:38:18;24.42;;;10.32;;
66619;SDS011;53484;51.356;6.732;2023-04-06T10:40:48;25.33;;;11.13;;
66619;SDS011;53484;51.356;6.732;2023-04-06T10:43:18;24.02;;;10.50;;
66619;SDS011;53484;51.356;6.732;2023-04-06T10:45:44;28.88;;;10.73;;
66619;SDS011;53484;51.356;6.732;2023-04-06T10:48:13;20.63;;;10.37;;
66619;SDS011;53484;51.356;6.732;2023-04-06T10:50:42;23.13;;;11.10;;
66619;SDS011;53484;51.356;6.732;2023-04-06T10:53:09;24.48;;;11.15;;
66619;SDS011;53484;51.356;6.732;2023-04-06T10:55:35;54.17;;;15.07;;
66619;SDS011;53484;51.356;6.732;2023-04-06T10:58:05;27.95;;;11.95;;
66619;SDS011;53484;51.356;6.732;2023-04-06T11:00:32;25.63;;;11.70;;
66619;SDS011;53484;51.356;6.732;2023-04-06T11:02:58;24.55;;;11.88;;
66619;SDS011;53484;51.356;6.732;2023-04-06T11:05:25;25.08;;;11.98;;
66619;SDS011;53484;51.356;6.732;2023-04-06T11:07:52;25.08;;;11.38;;
66619;SDS011;53484;51.356;6.732;2023-04-06T11:10:20;25.27;;;11.82;;
66619;SDS011;53484;51.356;6.732;2023-04-06T11:12:51;24.93;;;11.60;;
66619;SDS011;53484;51.356;6.732;2023-04-06T11:15:17;24.65;;;11.40;;
66619;SDS011;53484;51.356;6.732;2023-04-06T11:17:44;24.63;;;11.07;;
66619;SDS011;53484;51.356;6.732;2023-04-06T11:20:10;26.65;;;9.90;;
66619;SDS011;53484;51.356;6.732;2023-04-06T11:22:47;25.75;;;10.15;;
66619;SDS011;53484;51.356;6.732;2023-04-06T11:25:15;26.23;;;10.70;;
66619;SDS011;53484;51.356;6.732;2023-04-06T11:27:42;21.95;;;10.90;;
66619;SDS011;53484;51.356;6.732;2023-04-06T11:30:09;22.70;;;11.00;;
66619;SDS011;53484;51.356;6.732;2023-04-06T11:32:39;25.50;;;11.57;;
66619;SDS011;53484;51.356;6.732;2023-04-06T11:35:07;38.28;;;12.52;;
66619;SDS011;53484;51.356;6.732;2023-04-06T11:37:33;25.90;;;11.33;;
66619;SDS011;53484;51.356;6.732;2023-04-06T11:39:59;23.73;;;11.68;;
66619;SDS011;53484;51.356;6.732;2023-04-06T11:42:28;23.55;;;11.73;;
66619;SDS011;53484;51.356;6.732;2023-04-06T11:44:54;22.80;;;11.10;;
66619;SDS011;53484;51.356;6.732;2023-04-06T11:47:27;32.83;;;11.95;;
66619;SDS011;53484;51.356;6.732;2023-04-06T11:49:53;24.60;;;10.53;;
66619;SDS011;53484;51.356;6.732;2023-04-06T11:52:22;23.23;;;10.32;;
66619;SDS011;53484;51.356;6.732;2023-04-06T11:54:51;24.00;;;10.88;;
66619;SDS011;53484;51.356;6.732;2023-04-06T11:57:18;24.23;;;10.00;;
66619;SDS011;53484;51.356;6.732;2023-04-06T11:59:46;26.70;;;10.85;;
66619;SDS011;53484;51.356;6.732;2023-04-06T12:02:12;25.87;;;10.13;;
66619;SDS011;53484;51.356;6.732;2023-04-06T12:04:39;32.60;;;10.48;;
66619;SDS011;53484;51.356;6.732;2023-04-06T12:07:05;25.60;;;10.35;;
66619;SDS011;53484;51.356;6.732;2023-04-06T12:09:32;21.85;;;10.07;;
66619;SDS011;53484;51.356;6.732;2023-04-06T12:11:59;22.00;;;9.95;;
66619;SDS011;53484;51.356;6.732;2023-04-06T12:14:27;21.53;;;10.30;;
66619;SDS011;53484;51.356;6.732;2023-04-06T12:16:54;21.27;;;10.50;;
66619;SDS011;53484;51.356;6.732;2023-04-06T12:19:21;25.30;;;12.25;;
66619;SDS011;53484;51.356;6.732;2023-04-06T12:21:50;27.65;;;11.10;;
66619;SDS011;53484;51.356;6.732;2023-04-06T12:24:17;22.02;;;10.93;;
66619;SDS011;53484;51.356;6.732;2023-04-06T12:26:44;24.93;;;11.60;;
66619;SDS011;53484;51.356;6.732;2023-04-06T12:29:11;23.45;;;11.07;;
66619;SDS011;53484;51.356;6.732;2023-04-06T12:31:38;22.95;;;11.10;;
66619;SDS011;53484;51.356;6.732;2023-04-06T12:34:07;21.23;;;11.05;;
66619;SDS011;53484;51.356;6.732;2023-04-06T12:36:34;23.38;;;10.82;;
66619;SDS011;53484;51.356;6.732;2023-04-06T12:39:04;25.53;;;10.80;;
66619;SDS011;53484;51.356;6.732;2023-04-06T12:41:31;24.83;;;11.15;;
66619;SDS011;53484;51.356;6.732;2023-04-06T12:43:57;18.90;;;9.32;;
66619;SDS011;53484;51.356;6.732;2023-04-06T12:46:24;19.48;;;8.30;;
66619;SDS011;53484;51.356;6.732;2023-04-06T12:48:51;18.20;;;7.60;;
66619;SDS011;53484;51.356;6.732;2023-04-06T12:51:21;18.73;;;8.47;;
66619;SDS011;53484;51.356;6.732;2023-04-06T12:53:48;15.38;;;8.00;;
66619;SDS011;53484;51.356;6.732;2023-04-06T12:56:15;12.98;;;6.68;;
66619;SDS011;53484;51.356;6.732;2023-04-06T12:58:43;14.35;;;6.38;;
66619;SDS011;53484;51.356;6.732;2023-04-06T13:01:09;14.10;;;6.90;;
66619;SDS011;53484;51.356;6.732;2023-04-06T13:03:37;13.73;;;6.33;;
66619;SDS011;53484;51.356;6.732;2023-04-06T13:06:04;16.17;;;6.07;;
66619;SDS011;53484;51.356;6.732;2023-04-06T13:08:32;13.63;;;6.15;;
66619;SDS011;53484;51.356;6.732;2023-04-06T13:10:58;12.80;;;5.00;;
66619;SDS011;53484;51.356;6.732;2023-04-06T13:13:25;10.70;;;4.95;;
66619;SDS011;53484;51.356;6.732;2023-04-06T13:15:51;12.40;;;5.43;;
66619;SDS011;53484;51.356;6.732;2023-04-06T13:18:18;9.60;;;5.25;;
66619;SDS011;53484;51.356;6.732;2023-04-06T13:20:46;12.00;;;5.32;;
66619;SDS011;53484;51.356;6.732;2023-04-06T13:23:12;13.43;;;6.28;;
66619;SDS011;53484;51.356;6.732;2023-04-06T13:25:42;10.95;;;5.93;;
66619;SDS011;53484;51.356;6.732;2023-04-06T13:28:08;14.80;;;6.20;;
66619;SDS011;53484;51.356;6.732;2023-04-06T13:30:35;15.95;;;5.65;;
66619;SDS011;53484;51.356;6.732;2023-04-06T13:33:02;12.20;;;6.22;;
66619;SDS011;53484;51.356;6.732;2023-04-06T13:35:29;12.77;;;5.85;;
66619;SDS011;53484;51.356;6.732;2023-04-06T13:37:55;13.20;;;6.50;;
66619;SDS011;53484;51.356;6.732;2023-04-06T13:40:22;12.23;;;6.60;;
66619;SDS011;53484;51.356;6.732;2023-04-06T13:42:49;14.65;;;6.78;;
66619;SDS011;53484;51.356;6.732;2023-04-06T13:45:18;18.85;;;7.80;;
66619;SDS011;53484;51.356;6.732;2023-04-06T13:47:44;13.77;;;7.47;;
66619;SDS011;53484;51.356;6.732;2023-04-06T13:50:11;14.85;;;7.30;;
66619;SDS011;53484;51.356;6.732;2023-04-06T13:52:37;16.40;;;7.20;;
66619;SDS011;53484;51.356;6.732;2023-04-06T13:55:04;13.98;;;7.35;;
66619;SDS011;53484;51.356;6.732;2023-04-06T13:57:30;14.07;;;7.03;;
66619;SDS011;53484;51.356;6.732;2023-04-06T13:59:58;15.75;;;6.78;;
66619;SDS011;53484;51.356;6.732;2023-04-06T14:02:24;15.00;;;6.40;;
66619;SDS011;53484;51.356;6.732;2023-04-06T14:04:52;13.87;;;6.97;;
66619;SDS011;53484;51.356;6.732;2023-04-06T14:07:19;12.65;;;6.95;;
66619;SDS011;53484;51.356;6.732;2023-04-06T14:09:45;12.32;;;6.13;;
66619;SDS011;53484;51.356;6.732;2023-04-06T14:12:11;12.52;;;6.25;;
66619;SDS011;53484;51.356;6.732;2023-04-06T14:14:38;11.95;;;6.25;;
66619;SDS011;53484;51.356;6.732;2023-04-06T14:17:05;15.37;;;6.50;;
66619;SDS011;53484;51.356;6.732;2023-04-06T14:19:32;12.52;;;6.72;;
66619;SDS011;53484;51.356;6.732;2023-04-06T14:21:59;13.38;;;6.75;;
66619;SDS011;53484;51.356;6.732;2023-04-06T14:24:31;11.48;;;6.40;;
66619;SDS011;53484;51.356;6.732;2023-04-06T14:26:58;13.43;;;6.72;;
66619;SDS011;53484;51.356;6.732;2023-04-06T14:29:26;12.83;;;6.90;;
66619;SDS011;53484;51.356;6.732;2023-04-06T14:31:52;12.27;;;6.55;;
66619;SDS011;53484;51.356;6.732;2023-04-06T14:34:27;14.18;;;7.40;;